createdAt,value
2022-08-22T00:00:33.894Z,13.25
2022-08-22T00:02:54.356Z,7.70
2022-08-22T00:03:01.015Z,10.10
2022-08-22T00:03:09.681Z,11.75
2022-08-22T00:06:00.715Z,14.57
2022-08-22T00:08:57.450Z,14.45
2022-08-22T00:11:52.844Z,14.90
2022-08-22T00:14:35.008Z,11.43
2022-08-22T00:17:20.227Z,10.90
2022-08-22T00:20:13.390Z,8.93
2022-08-22T00:22:52.396Z,12.77
2022-08-22T00:25:54.975Z,12.23
2022-08-22T00:28:41.867Z,12.13
2022-08-22T00:31:35.347Z,10.23
2022-08-22T00:34:11.840Z,10.40
2022-08-22T00:36:51.444Z,11.00
2022-08-22T00:39:25.453Z,8.60
2022-08-22T00:42:31.718Z,11.30
2022-08-22T00:45:20.176Z,8.98
2022-08-22T00:48:21.898Z,10.63
2022-08-22T00:51:11.478Z,10.88
2022-08-22T00:53:37.951Z,13.83
2022-08-22T00:56:29.346Z,12.25
2022-08-22T00:59:23.806Z,13.05
2022-08-22T01:02:04.947Z,8.93
2022-08-22T01:04:42.657Z,11.93
2022-08-22T01:07:24.575Z,10.07
2022-08-22T01:10:34.031Z,13.13
2022-08-22T01:13:44.976Z,15.07
2022-08-22T01:16:14.137Z,11.07
2022-08-22T01:18:57.677Z,11.48
2022-08-22T01:21:52.128Z,11.20
2022-08-22T01:25:13.145Z,13.88
2022-08-22T01:28:07.436Z,17.45
2022-08-22T01:30:59.106Z,11.25
2022-08-22T01:33:43.456Z,16.02
2022-08-22T01:36:28.694Z,12.40
2022-08-22T01:39:15.398Z,11.18
2022-08-22T01:42:00.018Z,11.50
2022-08-22T01:44:35.449Z,15.85
2022-08-22T01:47:11.047Z,14.23
2022-08-22T01:49:44.620Z,12.17
2022-08-22T01:52:19.673Z,14.75
2022-08-22T01:54:59.603Z,17.10
2022-08-22T01:57:27.509Z,12.55
2022-08-22T02:00:07.653Z,12.13
2022-08-22T02:02:59.722Z,21.63
2022-08-22T02:05:37.382Z,14.98
2022-08-22T02:08:25.220Z,19.42
2022-08-22T02:11:04.592Z,11.77
2022-08-22T02:13:51.359Z,15.30
2022-08-22T02:16:20.679Z,14.40
2022-08-22T02:19:02.207Z,16.42
2022-08-22T02:21:41.684Z,14.88
2022-08-22T02:24:32.975Z,15.30
2022-08-22T02:27:19.796Z,13.90
2022-08-22T02:30:18.604Z,14.53
2022-08-22T02:33:10.263Z,11.70
2022-08-22T02:35:51.857Z,17.02
2022-08-22T02:38:29.248Z,12.95
2022-08-22T02:41:38.148Z,11.32
2022-08-22T02:44:25.729Z,14.37
2022-08-22T02:47:12.873Z,15.88
2022-08-22T02:49:58.563Z,13.95
2022-08-22T02:52:39.443Z,11.60
2022-08-22T02:55:50.572Z,14.32
2022-08-22T02:58:44.791Z,12.13
2022-08-22T03:01:33.534Z,17.70
2022-08-22T03:04:32.286Z,16.92
2022-08-22T03:07:08.013Z,12.15
2022-08-22T03:09:41.495Z,13.00
2022-08-22T03:12:41.948Z,14.53
2022-08-22T03:15:23.413Z,12.77
2022-08-22T03:18:00.139Z,14.70
2022-08-22T03:20:42.008Z,17.58
2022-08-22T03:23:40.720Z,16.35
2022-08-22T03:26:22.695Z,14.17
2022-08-22T03:28:59.711Z,14.40
2022-08-22T03:31:29.181Z,19.15
2022-08-22T03:34:21.459Z,13.27
2022-08-22T03:36:58.304Z,13.38
2022-08-22T03:40:00.226Z,10.57
2022-08-22T03:42:35.812Z,11.55
2022-08-22T03:45:28.587Z,11.98
2022-08-22T03:48:27.520Z,13.90
2022-08-22T03:51:21.907Z,15.10
2022-08-22T03:54:09.697Z,14.43
2022-08-22T03:56:39.108Z,15.55
2022-08-22T03:59:24.092Z,15.00
2022-08-22T04:02:27.522Z,19.02
2022-08-22T04:05:01.426Z,15.60
2022-08-22T04:08:08.064Z,11.67
2022-08-22T04:11:15.714Z,13.55
2022-08-22T04:13:57.351Z,14.20
2022-08-22T04:16:26.641Z,15.60
2022-08-22T04:19:22.686Z,11.63
2022-08-22T04:21:51.953Z,12.10
2022-08-22T04:24:30.570Z,14.13
2022-08-22T04:27:03.123Z,15.30
2022-08-22T04:29:38.924Z,12.93
2022-08-22T04:32:27.277Z,16.10
2022-08-22T04:35:08.172Z,11.07
2022-08-22T04:37:40.508Z,15.93
2022-08-22T04:40:14.330Z,14.20
2022-08-22T04:42:55.941Z,14.07
2022-08-22T04:45:48.992Z,19.70
2022-08-22T04:48:28.246Z,16.63
2022-08-22T04:51:03.612Z,18.40
2022-08-22T04:53:52.172Z,24.35
2022-08-22T04:56:45.081Z,19.42
2022-08-22T04:59:16.507Z,22.20
2022-08-22T05:01:59.260Z,23.00
2022-08-22T05:04:30.617Z,22.95
2022-08-22T05:07:16.024Z,22.10
2022-08-22T05:09:47.637Z,19.75
2022-08-22T05:12:25.241Z,23.42
2022-08-22T05:15:05.658Z,18.80
2022-08-22T05:17:37.841Z,21.73
2022-08-22T05:20:10.138Z,23.10
2022-08-22T05:22:42.786Z,19.80
2022-08-22T05:25:15.044Z,22.02
2022-08-22T05:28:13.652Z,20.37
2022-08-22T05:30:41.107Z,20.45
2022-08-22T05:33:21.631Z,17.15
2022-08-22T05:35:58.243Z,24.55
2022-08-22T05:38:31.040Z,19.83
2022-08-22T05:41:06.048Z,18.90
2022-08-22T05:43:38.498Z,16.73
2022-08-22T05:46:09.929Z,13.05
2022-08-22T05:49:01.129Z,18.90
2022-08-22T05:51:39.745Z,15.98
2022-08-22T05:54:14.465Z,14.50
2022-08-22T05:56:49.265Z,13.05
2022-08-22T05:59:29.887Z,14.00
2022-08-22T06:02:15.278Z,15.23
2022-08-22T06:04:51.819Z,16.45
2022-08-22T06:07:22.218Z,19.73
2022-08-22T06:09:48.724Z,15.40
2022-08-22T06:12:22.786Z,18.23
2022-08-22T06:15:11.595Z,19.33
2022-08-22T06:17:45.430Z,16.90
2022-08-22T06:20:19.623Z,12.57
2022-08-22T06:22:53.478Z,16.80
2022-08-22T06:25:34.029Z,14.77
2022-08-22T06:28:23.809Z,14.32
2022-08-22T06:30:54.143Z,14.80
2022-08-22T06:33:29.351Z,16.43
2022-08-22T06:36:23.643Z,13.93
2022-08-22T06:38:56.435Z,14.23
2022-08-22T06:41:26.692Z,15.90
2022-08-22T06:43:54.316Z,16.73
2022-08-22T06:46:26.144Z,16.33
2022-08-22T06:48:56.294Z,16.25
2022-08-22T06:51:29.345Z,15.93
2022-08-22T06:54:08.783Z,19.23
2022-08-22T06:56:40.678Z,15.90
2022-08-22T06:59:15.647Z,14.67
2022-08-22T07:01:45.083Z,19.67
2022-08-22T07:04:12.009Z,15.82
2022-08-22T07:06:42.647Z,17.02
2022-08-22T07:09:34.765Z,11.98
2022-08-22T07:12:04.631Z,15.17
2022-08-22T07:14:42.192Z,16.25
2022-08-22T07:17:17.862Z,15.27
2022-08-22T07:19:57.315Z,14.50
2022-08-22T07:22:25.615Z,17.35
2022-08-22T07:25:08.220Z,14.73
2022-08-22T07:28:03.709Z,13.10
2022-08-22T07:31:01.675Z,15.45
2022-08-22T07:33:49.809Z,13.23
2022-08-22T07:36:31.619Z,14.82
2022-08-22T07:39:39.662Z,12.17
2022-08-22T07:42:21.612Z,13.60
2022-08-22T07:45:13.897Z,13.60
2022-08-22T07:48:04.724Z,11.65
2022-08-22T07:50:37.080Z,14.32
2022-08-22T07:53:27.934Z,12.32
2022-08-22T07:55:56.528Z,14.67
2022-08-22T07:58:27.041Z,10.32
2022-08-22T08:00:54.872Z,13.23
2022-08-22T08:03:24.754Z,11.32
2022-08-22T08:05:52.749Z,11.30
2022-08-22T08:08:45.911Z,14.23
2022-08-22T08:11:17.020Z,11.35
2022-08-22T08:13:47.422Z,11.82
2022-08-22T08:16:21.821Z,13.45
2022-08-22T08:18:51.636Z,11.38
2022-08-22T08:21:49.461Z,11.47
2022-08-22T08:24:22.292Z,11.18
2022-08-22T08:27:12.804Z,12.63
2022-08-22T08:29:45.160Z,15.82
2022-08-22T08:32:13.432Z,11.30
2022-08-22T08:34:43.369Z,11.93
2022-08-22T08:37:22.256Z,14.30
2022-08-22T08:39:51.963Z,13.90
2022-08-22T08:43:03.179Z,13.02
2022-08-22T08:45:29.572Z,10.50
2022-08-22T08:48:18.332Z,12.23
2022-08-22T08:51:41.530Z,15.15
2022-08-22T08:54:40.872Z,18.20
2022-08-22T08:57:15.093Z,10.25
2022-08-22T08:59:44.416Z,12.40
2022-08-22T09:02:34.845Z,10.97
2022-08-22T09:05:15.488Z,13.52
2022-08-22T09:07:56.122Z,16.83
2022-08-22T09:10:41.234Z,14.10
2022-08-22T09:13:48.166Z,16.05
2022-08-22T09:16:24.672Z,13.33
2022-08-22T09:19:17.347Z,13.32
2022-08-22T09:22:14.545Z,14.77
2022-08-22T09:24:52.429Z,16.27
2022-08-22T09:27:32.513Z,14.93
2022-08-22T09:30:08.009Z,13.77
2022-08-22T09:33:03.444Z,15.30
2022-08-22T09:35:41.934Z,14.75
2022-08-22T09:38:33.200Z,16.38
2022-08-22T09:41:03.849Z,13.98
2022-08-22T09:43:45.012Z,20.40
2022-08-22T09:46:18.554Z,15.85
2022-08-22T09:49:13.257Z,14.32
2022-08-22T09:51:50.540Z,12.82
2022-08-22T09:54:33.677Z,17.15
2022-08-22T09:57:02.084Z,14.67
2022-08-22T09:59:46.946Z,16.25
2022-08-22T10:02:34.614Z,15.27
2022-08-22T10:05:07.705Z,15.48
2022-08-22T10:07:53.071Z,15.50
2022-08-22T10:10:43.315Z,14.00
2022-08-22T10:13:36.105Z,15.43
2022-08-22T10:16:17.062Z,17.48
2022-08-22T10:19:06.699Z,16.30
2022-08-22T10:22:08.445Z,18.90
2022-08-22T10:25:10.633Z,16.37
2022-08-22T10:27:56.878Z,16.90
2022-08-22T10:30:49.655Z,16.85
2022-08-22T10:33:20.284Z,18.42
2022-08-22T10:36:15.315Z,14.70
2022-08-22T10:38:54.780Z,14.50
2022-08-22T10:41:36.209Z,21.23
2022-08-22T10:44:14.853Z,15.15
2022-08-22T10:46:51.110Z,14.88
2022-08-22T10:49:28.268Z,16.30
2022-08-22T10:52:21.979Z,17.40
2022-08-22T10:54:51.571Z,15.60
2022-08-22T10:57:36.830Z,14.52
2022-08-22T11:00:46.332Z,12.07
2022-08-22T11:03:32.116Z,14.15
2022-08-22T11:06:02.860Z,9.97
2022-08-22T11:08:48.942Z,10.35
2022-08-22T11:11:25.271Z,7.82
2022-08-22T11:14:14.540Z,10.48
2022-08-22T11:17:12.052Z,9.68
2022-08-22T11:20:16.678Z,13.73
2022-08-22T11:23:16.835Z,12.25
2022-08-22T11:26:07.856Z,10.98
2022-08-22T11:29:11.282Z,12.18
2022-08-22T11:31:51.595Z,13.82
2022-08-22T11:34:38.898Z,9.17
2022-08-22T11:37:14.940Z,10.75
2022-08-22T11:39:48.996Z,14.40
2022-08-22T11:42:47.351Z,8.40
2022-08-22T11:45:21.514Z,10.50
2022-08-22T11:48:00.636Z,10.57
2022-08-22T11:50:36.702Z,10.00
2022-08-22T11:53:37.003Z,11.90
2022-08-22T11:56:30.145Z,10.35
2022-08-22T11:59:02.587Z,11.65
2022-08-22T12:01:46.208Z,11.07
2022-08-22T12:04:25.109Z,8.68
2022-08-22T12:06:54.545Z,9.60
2022-08-22T12:09:51.000Z,9.45
2022-08-22T12:12:25.859Z,13.73
2022-08-22T12:15:03.882Z,11.00
2022-08-22T12:18:01.426Z,10.75
2022-08-22T12:20:46.038Z,10.68
2022-08-22T12:23:40.783Z,12.13
2022-08-22T12:26:29.182Z,11.73
2022-08-22T12:29:04.728Z,12.67
2022-08-22T12:32:37.773Z,11.73
2022-08-22T12:35:40.300Z,12.05
2022-08-22T12:38:31.301Z,10.23
2022-08-22T12:41:35.080Z,9.25
2022-08-22T12:44:17.139Z,10.47
2022-08-22T12:47:04.457Z,6.85
2022-08-22T12:49:49.953Z,11.45
2022-08-22T12:52:44.371Z,7.70
2022-08-22T12:55:24.839Z,8.95
2022-08-22T12:58:03.548Z,10.57
2022-08-22T13:00:38.166Z,8.13
2022-08-22T13:03:10.942Z,12.35
2022-08-22T13:05:44.129Z,9.05
2022-08-22T13:08:19.951Z,9.55
2022-08-22T13:10:50.903Z,10.80
2022-08-22T13:13:37.140Z,12.15
2022-08-22T13:16:09.407Z,9.05
2022-08-22T13:18:59.016Z,8.63
2022-08-22T13:21:36.141Z,9.00
2022-08-22T13:24:38.558Z,10.90
2022-08-22T13:27:22.209Z,9.18
2022-08-22T13:29:57.645Z,7.97
2022-08-22T13:32:33.342Z,9.55
2022-08-22T13:35:01.264Z,7.22
2022-08-22T13:37:40.941Z,8.33
2022-08-22T13:40:13.215Z,7.75
2022-08-22T13:42:47.798Z,6.78
2022-08-22T13:45:22.061Z,6.97
2022-08-22T13:47:56.841Z,11.20
2022-08-22T13:50:27.706Z,7.23
2022-08-22T13:53:14.625Z,7.18
2022-08-22T13:55:59.223Z,9.77
2022-08-22T13:58:32.385Z,8.73
2022-08-22T14:01:15.572Z,8.48
2022-08-22T14:03:48.601Z,11.07
2022-08-22T14:06:37.710Z,9.02
2022-08-22T14:09:30.720Z,5.68
2022-08-22T14:12:33.494Z,8.02
2022-08-22T14:15:03.679Z,8.13
2022-08-22T14:17:42.510Z,7.20
2022-08-22T14:20:14.512Z,12.07
2022-08-22T14:23:10.526Z,8.10
2022-08-22T14:25:40.865Z,8.15
2022-08-22T14:28:27.387Z,9.38
2022-08-22T14:31:13.663Z,7.07
2022-08-22T14:33:52.825Z,9.07
2022-08-22T14:36:26.481Z,7.25
2022-08-22T14:39:06.608Z,5.65
2022-08-22T14:41:52.970Z,7.75
2022-08-22T14:44:32.657Z,7.43
2022-08-22T14:47:04.863Z,8.82
2022-08-22T14:50:00.849Z,11.75
2022-08-22T14:52:29.363Z,10.10
2022-08-22T14:55:08.404Z,8.65
2022-08-22T14:57:41.643Z,6.63
2022-08-22T15:00:13.947Z,6.85
2022-08-22T15:02:42.144Z,8.20
2022-08-22T15:05:19.797Z,9.73
2022-08-22T15:07:59.322Z,7.32
2022-08-22T15:10:34.163Z,9.30
2022-08-22T15:13:07.889Z,7.65
2022-08-22T15:15:53.616Z,12.23
2022-08-22T15:18:28.487Z,11.57
2022-08-22T15:21:08.729Z,7.93
2022-08-22T15:23:45.276Z,7.70
2022-08-22T15:26:23.126Z,8.25
2022-08-22T15:29:04.429Z,13.77
2022-08-22T15:31:31.491Z,9.65
2022-08-22T15:34:12.045Z,8.98
2022-08-22T15:37:24.629Z,7.63
2022-08-22T15:40:12.032Z,9.32
2022-08-22T15:42:51.485Z,8.80
2022-08-22T15:45:29.647Z,10.38
2022-08-22T15:48:01.295Z,7.20
2022-08-22T15:50:41.803Z,8.27
2022-08-22T15:53:22.163Z,7.15
2022-08-22T15:56:22.458Z,10.07
2022-08-22T15:59:11.247Z,8.60
2022-08-22T16:01:44.272Z,7.72
2022-08-22T16:04:16.476Z,6.10
2022-08-22T16:06:48.847Z,8.10
2022-08-22T16:09:29.264Z,10.77
2022-08-22T16:11:57.505Z,11.20
2022-08-22T16:14:46.229Z,9.18
2022-08-22T16:17:24.887Z,6.43
2022-08-22T16:20:19.311Z,9.73
2022-08-22T16:22:58.721Z,9.18
2022-08-22T16:25:46.770Z,8.48
2022-08-22T16:28:56.799Z,9.35
2022-08-22T16:31:39.429Z,10.40
2022-08-22T16:34:18.363Z,5.82
2022-08-22T16:37:23.514Z,7.18
2022-08-22T16:39:59.028Z,10.35
2022-08-22T16:42:46.825Z,11.85
2022-08-22T16:45:32.736Z,8.23
2022-08-22T16:48:16.018Z,10.23
2022-08-22T16:50:43.036Z,12.02
2022-08-22T16:53:29.829Z,7.72
2022-08-22T16:56:13.620Z,13.07
2022-08-22T16:58:59.095Z,7.82
2022-08-22T17:01:54.943Z,8.38
2022-08-22T17:04:36.533Z,8.60
2022-08-22T17:07:18.419Z,5.93
2022-08-22T17:09:50.894Z,7.60
2022-08-22T17:12:26.349Z,7.43
2022-08-22T17:15:14.979Z,9.77
2022-08-22T17:18:27.125Z,7.35
2022-08-22T17:21:19.550Z,11.02
2022-08-22T17:23:51.797Z,8.53
2022-08-22T17:26:49.067Z,8.45
2022-08-22T17:29:28.954Z,6.57
2022-08-22T17:32:40.528Z,7.03
2022-08-22T17:35:13.055Z,11.40
2022-08-22T17:37:59.895Z,7.73
2022-08-22T17:41:02.279Z,8.70
2022-08-22T17:43:55.945Z,9.82
2022-08-22T17:46:41.394Z,7.95
2022-08-22T17:49:28.626Z,8.90
2022-08-22T17:52:05.747Z,8.63
2022-08-22T17:54:42.095Z,17.95
2022-08-22T17:57:14.403Z,8.20
2022-08-22T17:59:53.831Z,8.48
2022-08-22T18:02:25.900Z,8.60
2022-08-22T18:05:11.729Z,11.67
2022-08-22T18:07:57.747Z,11.05
2022-08-22T18:10:24.343Z,6.70
2022-08-22T18:13:09.623Z,13.73
2022-08-22T18:15:49.539Z,9.45
2022-08-22T18:18:18.803Z,7.60
2022-08-22T18:20:56.016Z,10.15
2022-08-22T18:23:39.751Z,11.15
2022-08-22T18:26:20.688Z,13.63
2022-08-22T18:29:04.168Z,8.27
2022-08-22T18:31:47.136Z,11.63
2022-08-22T18:34:24.864Z,8.98
2022-08-22T18:37:02.508Z,11.10
2022-08-22T18:39:42.625Z,8.77
2022-08-22T18:42:18.376Z,8.52
2022-08-22T18:44:45.590Z,11.50
2022-08-22T18:47:19.177Z,9.43
2022-08-22T18:49:49.099Z,12.25
2022-08-22T18:52:20.364Z,11.47
2022-08-22T18:55:35.145Z,6.88
2022-08-22T18:58:40.018Z,11.02
2022-08-22T19:01:17.436Z,8.85
2022-08-22T19:04:24.135Z,9.43
2022-08-22T19:07:00.103Z,10.80
2022-08-22T19:09:54.018Z,9.52
2022-08-22T19:12:20.547Z,11.38
2022-08-22T19:15:06.053Z,8.60
2022-08-22T19:18:04.149Z,12.43
2022-08-22T19:20:55.278Z,14.40
2022-08-22T19:23:34.388Z,20.20
2022-08-22T19:26:30.339Z,17.75
2022-08-22T19:29:25.952Z,15.30
2022-08-22T19:31:54.621Z,21.75
2022-08-22T19:34:33.903Z,15.00
2022-08-22T19:37:30.465Z,14.13
2022-08-22T19:40:11.151Z,21.15
2022-08-22T19:42:40.541Z,14.57
2022-08-22T19:45:07.449Z,17.60
2022-08-22T19:47:39.158Z,14.40
2022-08-22T19:50:26.550Z,21.33
2022-08-22T19:53:00.150Z,14.73
2022-08-22T19:55:38.876Z,15.75
2022-08-22T19:58:55.209Z,14.15
2022-08-22T20:01:56.181Z,16.70
2022-08-22T20:04:47.459Z,14.02
2022-08-22T20:07:14.635Z,10.57
2022-08-22T20:10:08.965Z,11.98
2022-08-22T20:13:04.241Z,15.52
2022-08-22T20:15:36.070Z,14.53
2022-08-22T20:18:12.490Z,13.88
2022-08-22T20:21:00.036Z,16.08
2022-08-22T20:23:30.871Z,11.52
2022-08-22T20:25:58.570Z,11.63
2022-08-22T20:28:49.025Z,16.70
2022-08-22T20:31:23.265Z,10.82
2022-08-22T20:33:55.659Z,10.90
2022-08-22T20:36:27.826Z,12.60
2022-08-22T20:39:01.698Z,13.00
2022-08-22T20:41:37.424Z,12.10
2022-08-22T20:44:16.115Z,12.52
2022-08-22T20:46:53.516Z,15.02
2022-08-22T20:49:30.037Z,12.57
2022-08-22T20:52:02.491Z,15.45
2022-08-22T20:54:32.580Z,15.83
2022-08-22T20:57:01.405Z,13.27
2022-08-22T20:59:41.470Z,13.48
2022-08-22T21:02:29.835Z,17.35
2022-08-22T21:05:03.639Z,13.70
2022-08-22T21:07:39.798Z,12.33
2022-08-22T21:10:36.186Z,10.13
2022-08-22T21:13:04.701Z,14.20
2022-08-22T21:15:43.395Z,14.18
2022-08-22T21:18:23.745Z,13.20
2022-08-22T21:20:50.953Z,15.03
2022-08-22T21:23:18.035Z,16.15
2022-08-22T21:26:08.670Z,14.85
2022-08-22T21:28:57.738Z,13.88
2022-08-22T21:31:28.885Z,14.73
2022-08-22T21:33:56.997Z,18.20
2022-08-22T21:36:28.281Z,15.88
2022-08-22T21:39:03.651Z,13.40
2022-08-22T21:41:52.426Z,16.75
2022-08-22T21:44:27.712Z,11.80
2022-08-22T21:46:55.320Z,14.47
2022-08-22T21:49:24.984Z,16.15
2022-08-22T21:51:52.964Z,13.98
2022-08-22T21:54:29.791Z,19.63
2022-08-22T21:57:18.003Z,17.65
2022-08-22T21:59:59.355Z,18.27
2022-08-22T22:02:36.453Z,19.13
2022-08-22T22:05:11.538Z,16.15
2022-08-22T22:07:41.255Z,18.65
2022-08-22T22:10:11.607Z,17.30
2022-08-22T22:12:40.879Z,16.73
2022-08-22T22:15:08.494Z,19.48
2022-08-22T22:17:35.087Z,19.38
2022-08-22T22:20:02.181Z,13.95
2022-08-22T22:22:28.831Z,12.10
2022-08-22T22:24:55.363Z,15.57
2022-08-22T22:27:21.897Z,14.00
2022-08-22T22:29:48.724Z,15.70
2022-08-22T22:32:15.356Z,19.23
2022-08-22T22:34:41.935Z,18.23
2022-08-22T22:37:10.029Z,13.20
2022-08-22T22:39:37.135Z,15.60
2022-08-22T22:42:04.387Z,16.48
2022-08-22T22:44:31.136Z,13.45
2022-08-22T22:46:58.912Z,15.10
2022-08-22T22:49:25.532Z,12.90
2022-08-22T22:51:52.208Z,15.38
2022-08-22T22:54:18.842Z,14.32
2022-08-22T22:56:54.093Z,12.95
2022-08-22T22:59:24.714Z,14.23
2022-08-22T23:02:05.957Z,14.57
2022-08-22T23:04:34.362Z,16.17
2022-08-22T23:07:01.433Z,14.57
2022-08-22T23:09:38.787Z,15.73
2022-08-22T23:12:13.217Z,17.65
2022-08-22T23:14:39.902Z,17.70
2022-08-22T23:17:07.218Z,14.65
2022-08-22T23:19:34.045Z,17.10
2022-08-22T23:22:01.285Z,13.70
2022-08-22T23:24:29.701Z,10.30
2022-08-22T23:26:57.101Z,10.23
2022-08-22T23:29:24.182Z,12.60
2022-08-22T23:31:56.437Z,12.38
2022-08-22T23:34:29.204Z,15.60
2022-08-22T23:37:01.216Z,15.18
2022-08-22T23:39:29.714Z,18.57
2022-08-22T23:41:57.744Z,14.23
2022-08-22T23:44:27.400Z,14.35
2022-08-22T23:46:55.820Z,16.67
2022-08-22T23:49:22.455Z,14.10
2022-08-22T23:51:49.950Z,16.70
2022-08-22T23:54:17.185Z,16.10
2022-08-22T23:56:47.596Z,13.63
2022-08-22T23:59:18.769Z,11.95
